Terminal Aerodrome Forecast
Issued by NWS Wilmington, NC

Home | Current Version | Previous Version | Text Only | Print | Product List | Glossary On
Versions: 1 2 3 4 5 6 7 8 9 10 11 12 13 14 15
305
FTUS42 KILM 262320
TAFFLO
TAF
KFLO 262320Z 2700/2724 12006KT P6SM SKC
     FM270900 00000KT 4SM BR SCT250
     FM271200 10002KT 2SM BR SCT001
     FM271400 17005KT P6SM FEW250=

USA.gov is the U.S. government's official web portal to all federal, state and local government web resources and services.